createdAt,value
2018-08-06T00:01:22.493Z,72.91
2018-08-06T00:03:50.961Z,72.89
2018-08-06T00:06:19.282Z,72.50
2018-08-06T00:08:47.638Z,73.23
2018-08-06T00:11:15.998Z,73.34
2018-08-06T00:13:44.431Z,73.60
2018-08-06T00:16:12.801Z,73.05
2018-08-06T00:18:41.334Z,73.55
2018-08-06T00:21:09.786Z,72.66
2018-08-06T00:23:38.190Z,73.02
2018-08-06T00:26:06.600Z,73.00
2018-08-06T00:28:35.122Z,72.86
2018-08-06T00:31:03.495Z,74.23
2018-08-06T00:33:31.895Z,75.07
2018-08-06T00:36:00.271Z,75.35
2018-08-06T00:38:28.608Z,75.99
2018-08-06T00:40:56.895Z,76.37
2018-08-06T00:43:25.229Z,75.12
2018-08-06T00:45:53.624Z,73.69
2018-08-06T00:48:21.925Z,74.33
2018-08-06T00:50:50.296Z,75.75
2018-08-06T00:53:18.575Z,76.08
2018-08-06T00:55:47.022Z,76.67
2018-08-06T00:58:15.353Z,76.09
2018-08-06T01:00:43.670Z,75.06
2018-08-06T01:03:12.012Z,75.24
2018-08-06T01:05:40.557Z,75.17
2018-08-06T01:08:08.979Z,75.16
2018-08-06T01:10:37.265Z,75.34
2018-08-06T01:13:11.221Z,74.47
2018-08-06T01:15:39.613Z,74.29
2018-08-06T01:18:08.196Z,74.39
2018-08-06T01:20:36.522Z,74.14
2018-08-06T01:23:04.830Z,76.13
2018-08-06T01:25:33.222Z,76.54
2018-08-06T01:28:01.507Z,76.32
2018-08-06T01:30:30.038Z,76.01
2018-08-06T01:32:58.370Z,75.86
2018-08-06T01:35:26.657Z,74.96
2018-08-06T01:37:55.036Z,76.02
2018-08-06T01:40:23.392Z,77.48
2018-08-06T01:42:51.691Z,77.50
2018-08-06T01:45:20.015Z,77.03
2018-08-06T01:47:48.373Z,77.30
2018-08-06T01:50:16.879Z,78.13
2018-08-06T01:52:45.242Z,78.01
2018-08-06T01:55:13.635Z,77.14
2018-08-06T01:57:42.203Z,76.74
2018-08-06T02:00:12.739Z,77.78
2018-08-06T02:02:41.085Z,78.03
2018-08-06T02:05:09.918Z,79.31
2018-08-06T02:07:38.694Z,79.45
2018-08-06T02:10:09.954Z,78.57
2018-08-06T02:12:38.342Z,77.76
2018-08-06T02:15:08.129Z,77.10
2018-08-06T02:17:36.798Z,76.73
2018-08-06T02:20:06.147Z,78.33
2018-08-06T02:22:34.507Z,80.19
2018-08-06T02:25:02.905Z,79.50
2018-08-06T02:27:31.299Z,78.30
2018-08-06T02:29:59.696Z,77.92
2018-08-06T02:32:28.046Z,77.73
2018-08-06T02:34:56.377Z,79.22
2018-08-06T02:37:24.837Z,79.18
2018-08-06T02:39:53.290Z,79.12
2018-08-06T02:42:21.674Z,79.01
2018-08-06T02:44:50.018Z,78.93
2018-08-06T02:47:18.387Z,78.43
2018-08-06T02:49:46.681Z,78.46
2018-08-06T02:52:15.048Z,79.85
2018-08-06T02:54:43.380Z,80.21
2018-08-06T02:57:11.734Z,80.23
2018-08-06T02:59:40.060Z,80.13
2018-08-06T03:02:08.412Z,80.56
2018-08-06T03:04:36.791Z,80.28
2018-08-06T03:07:05.471Z,80.17
2018-08-06T03:09:33.866Z,80.51
2018-08-06T03:12:02.195Z,79.77
2018-08-06T03:14:30.670Z,80.37
2018-08-06T03:16:59.019Z,81.66
2018-08-06T03:19:27.396Z,80.85
2018-08-06T03:21:56.959Z,80.19
2018-08-06T03:24:25.311Z,78.16
2018-08-06T03:26:53.626Z,78.54
2018-08-06T03:29:21.982Z,80.67
2018-08-06T03:31:50.311Z,81.62
2018-08-06T03:34:18.665Z,82.20
2018-08-06T03:36:47.027Z,81.72
2018-08-06T03:39:15.387Z,80.77
2018-08-06T03:41:43.728Z,79.40
2018-08-06T03:44:12.158Z,79.20
2018-08-06T03:46:40.638Z,80.15
2018-08-06T03:49:08.927Z,80.90
2018-08-06T03:51:37.234Z,80.42
2018-08-06T03:54:05.635Z,79.53
2018-08-06T03:56:33.984Z,79.66
2018-08-06T03:59:02.356Z,80.17
2018-08-06T04:01:30.954Z,81.16
2018-08-06T04:03:59.303Z,82.63
2018-08-06T04:06:27.667Z,82.11
2018-08-06T04:08:55.994Z,81.47
2018-08-06T04:11:24.400Z,80.62
2018-08-06T04:13:53.252Z,79.88
2018-08-06T04:16:21.643Z,79.19
2018-08-06T04:18:49.995Z,79.16
2018-08-06T04:21:18.346Z,80.64
2018-08-06T04:23:46.722Z,82.12
2018-08-06T04:26:15.098Z,82.32
2018-08-06T04:28:43.491Z,81.86
2018-08-06T04:31:11.883Z,81.29
2018-08-06T04:33:40.216Z,79.74
2018-08-06T04:36:08.565Z,78.94
2018-08-06T04:38:37.017Z,78.57
2018-08-06T04:41:05.332Z,78.93
2018-08-06T04:43:33.690Z,77.98
2018-08-06T04:46:02.202Z,77.17
2018-08-06T04:48:30.732Z,76.26
2018-08-06T04:50:59.047Z,75.98
2018-08-06T04:53:27.728Z,76.66
2018-08-06T04:55:56.715Z,77.85
2018-08-06T04:58:25.223Z,78.33
2018-08-06T05:00:53.558Z,77.84
2018-08-06T05:03:22.055Z,77.73
2018-08-06T05:05:50.386Z,76.22
2018-08-06T05:08:18.774Z,75.54
2018-08-06T05:10:47.246Z,75.01
2018-08-06T05:13:15.594Z,74.36
2018-08-06T05:15:43.934Z,74.72
2018-08-06T05:18:12.483Z,75.02
2018-08-06T05:20:41.028Z,74.49
2018-08-06T05:23:09.435Z,73.72
2018-08-06T05:25:37.930Z,73.44
2018-08-06T05:28:06.960Z,73.84
2018-08-06T05:30:35.268Z,73.59
2018-08-06T05:33:03.670Z,73.42
2018-08-06T05:35:32.039Z,73.23
2018-08-06T05:38:00.519Z,72.36
2018-08-06T05:40:28.853Z,71.99
2018-08-06T05:42:57.223Z,71.77
2018-08-06T05:45:25.653Z,71.55
2018-08-06T05:47:54.193Z,70.72
2018-08-06T05:50:22.520Z,70.47
2018-08-06T05:52:51.150Z,70.18
2018-08-06T05:55:19.580Z,69.88
2018-08-06T05:57:47.931Z,69.84
2018-08-06T06:00:18.431Z,69.18
2018-08-06T06:02:47.366Z,69.16
2018-08-06T06:05:15.737Z,69.79
2018-08-06T06:07:44.184Z,68.74
2018-08-06T06:10:14.481Z,69.15
2018-08-06T06:12:42.876Z,68.54
2018-08-06T06:15:14.267Z,68.33
2018-08-06T06:17:43.231Z,68.49
2018-08-06T06:20:11.693Z,67.54
2018-08-06T06:22:40.048Z,67.87
2018-08-06T06:25:11.054Z,67.21
2018-08-06T06:27:39.547Z,67.08
2018-08-06T06:30:10.287Z,66.31
2018-08-06T06:32:38.675Z,66.60
2018-08-06T06:35:07.211Z,65.69
2018-08-06T06:37:35.712Z,66.00
2018-08-06T06:40:04.258Z,65.45
2018-08-06T06:42:32.674Z,64.85
2018-08-06T06:45:01.117Z,64.04
2018-08-06T06:47:29.468Z,63.98
2018-08-06T06:49:58.083Z,62.07
2018-08-06T06:52:26.402Z,62.42
2018-08-06T06:54:54.783Z,61.32
2018-08-06T06:57:23.114Z,62.05
2018-08-06T06:59:51.462Z,61.11
2018-08-06T07:02:19.905Z,60.57
2018-08-06T07:04:48.250Z,60.45
2018-08-06T07:07:16.611Z,60.78
2018-08-06T07:09:45.767Z,59.78
2018-08-06T07:12:14.256Z,60.38
2018-08-06T07:14:42.590Z,59.60
2018-08-06T07:17:10.980Z,59.14
2018-08-06T07:19:39.325Z,59.37
2018-08-06T07:22:07.753Z,58.74
2018-08-06T07:24:36.110Z,59.13
2018-08-06T07:27:04.508Z,58.90
2018-08-06T07:29:32.889Z,58.72
2018-08-06T07:32:01.296Z,58.56
2018-08-06T07:34:29.669Z,57.51
2018-08-06T07:36:58.278Z,57.29
2018-08-06T07:39:26.629Z,57.10
2018-08-06T07:41:55.010Z,57.16
2018-08-06T07:44:23.353Z,57.03
2018-08-06T07:46:51.803Z,56.00
2018-08-06T07:49:20.525Z,56.05
2018-08-06T07:51:48.895Z,55.70
2018-08-06T07:54:17.251Z,55.46
2018-08-06T07:56:45.627Z,55.21
2018-08-06T07:59:13.955Z,54.11
2018-08-06T08:01:42.525Z,54.26
2018-08-06T08:04:10.903Z,53.95
2018-08-06T08:06:39.275Z,54.06
2018-08-06T08:09:09.488Z,53.24
2018-08-06T08:11:38.266Z,53.60
2018-08-06T08:14:06.699Z,53.89
2018-08-06T08:16:35.930Z,53.64
2018-08-06T08:19:04.291Z,52.89
2018-08-06T08:21:32.648Z,52.84
2018-08-06T08:24:01.254Z,51.61
2018-08-06T08:26:29.650Z,51.44
2018-08-06T08:28:58.303Z,50.55
2018-08-06T08:31:27.037Z,49.90
2018-08-06T08:33:55.428Z,49.76
2018-08-06T08:36:23.768Z,49.64
2018-08-06T08:38:52.088Z,49.87
2018-08-06T08:41:20.587Z,48.78
2018-08-06T08:43:48.930Z,48.90
2018-08-06T08:46:17.320Z,48.83
2018-08-06T08:48:45.647Z,48.51
2018-08-06T08:51:14.040Z,48.27
2018-08-06T08:53:42.455Z,47.65
2018-08-06T08:56:10.847Z,47.86
2018-08-06T08:58:39.271Z,46.75
2018-08-06T09:01:07.562Z,46.58
2018-08-06T09:03:35.912Z,46.88
2018-08-06T09:06:04.500Z,47.07
2018-08-06T09:08:33.287Z,45.89
2018-08-06T09:11:01.978Z,45.79
2018-08-06T09:13:30.397Z,46.65
2018-08-06T09:15:58.803Z,45.91
2018-08-06T09:18:27.227Z,45.82
2018-08-06T09:20:55.621Z,45.21
2018-08-06T09:23:23.953Z,44.78
2018-08-06T09:25:52.263Z,43.89
2018-08-06T09:28:20.763Z,43.41
2018-08-06T09:30:49.110Z,42.46
2018-08-06T09:33:17.413Z,42.06
2018-08-06T09:35:45.798Z,41.08
2018-08-06T09:38:14.122Z,42.75
2018-08-06T09:40:42.510Z,42.10
2018-08-06T09:43:10.994Z,42.33
2018-08-06T09:45:39.378Z,42.47
2018-08-06T09:48:07.738Z,41.10
2018-08-06T09:50:36.192Z,42.40
2018-08-06T09:53:04.592Z,41.24
2018-08-06T09:55:32.995Z,41.30
2018-08-06T09:58:01.282Z,40.32
2018-08-06T10:00:34.946Z,40.43
2018-08-06T10:03:03.511Z,40.65
2018-08-06T10:05:31.901Z,40.01
2018-08-06T10:08:00.226Z,38.87
2018-08-06T10:10:28.581Z,39.21
2018-08-06T10:12:57.047Z,39.58
2018-08-06T10:15:25.362Z,38.10
2018-08-06T10:17:54.781Z,38.88
2018-08-06T10:20:24.375Z,39.69
2018-08-06T10:22:52.686Z,39.16
2018-08-06T10:25:21.027Z,39.13
2018-08-06T10:27:49.481Z,38.64
2018-08-06T10:30:19.213Z,38.70
2018-08-06T10:32:47.485Z,36.89
2018-08-06T10:35:16.934Z,37.26
2018-08-06T10:37:45.446Z,37.01
2018-08-06T10:40:18.551Z,36.80
2018-08-06T10:42:46.937Z,36.96
2018-08-06T10:45:17.214Z,36.56
2018-08-06T10:47:45.574Z,36.77
2018-08-06T10:50:13.891Z,35.93
2018-08-06T10:52:42.231Z,36.18
2018-08-06T10:55:11.073Z,34.93
2018-08-06T10:57:40.377Z,34.71
2018-08-06T11:00:16.211Z,33.64
2018-08-06T11:02:44.695Z,35.21
2018-08-06T11:05:14.012Z,34.42
2018-08-06T11:07:42.359Z,34.23
2018-08-06T11:10:12.913Z,35.23
2018-08-06T11:12:41.838Z,34.25
2018-08-06T11:15:15.436Z,33.32
2018-08-06T11:17:43.762Z,32.80
2018-08-06T11:20:13.051Z,32.58
2018-08-06T11:22:41.659Z,33.48
2018-08-06T11:25:11.437Z,32.46
2018-08-06T11:27:39.745Z,31.60
2018-08-06T11:30:12.171Z,33.17
2018-08-06T11:32:40.466Z,31.98
2018-08-06T11:35:09.538Z,32.70
2018-08-06T11:37:37.976Z,31.37
2018-08-06T11:40:07.597Z,32.42
2018-08-06T11:42:36.257Z,31.27
2018-08-06T11:45:05.050Z,31.76
2018-08-06T11:47:33.535Z,31.22
2018-08-06T11:50:01.870Z,30.24
2018-08-06T11:52:30.147Z,31.62
2018-08-06T11:54:58.490Z,30.38
2018-08-06T11:57:26.867Z,30.66
2018-08-06T11:59:55.152Z,30.20
2018-08-06T12:02:23.615Z,30.26
2018-08-06T12:04:52.117Z,29.49
2018-08-06T12:07:20.618Z,29.62
2018-08-06T12:09:49.114Z,30.43
2018-08-06T12:12:17.658Z,29.67
2018-08-06T12:14:45.982Z,29.62
2018-08-06T12:17:14.535Z,29.69
2018-08-06T12:19:42.979Z,30.47
2018-08-06T12:22:11.419Z,28.87
2018-08-06T12:24:39.744Z,28.22
2018-08-06T12:27:08.234Z,28.63
2018-08-06T12:29:36.919Z,29.15
2018-08-06T12:32:05.427Z,29.48
2018-08-06T12:34:34.106Z,28.59
2018-08-06T12:37:02.559Z,30.02
2018-08-06T12:39:31.069Z,30.00
2018-08-06T12:41:59.477Z,30.21
2018-08-06T12:44:28.032Z,31.32
2018-08-06T12:46:56.448Z,29.08
2018-08-06T12:49:24.803Z,27.62
2018-08-06T12:51:53.273Z,28.78
2018-08-06T12:54:21.775Z,28.83
2018-08-06T12:56:50.311Z,29.36
2018-08-06T12:59:18.807Z,28.71
2018-08-06T13:01:47.320Z,30.03
2018-08-06T13:04:15.938Z,28.77
2018-08-06T13:06:44.335Z,29.13
2018-08-06T13:09:13.112Z,28.24
2018-08-06T13:11:41.814Z,28.10
2018-08-06T13:14:10.228Z,29.51
2018-08-06T13:16:38.581Z,28.04
2018-08-06T13:19:07.267Z,28.27
2018-08-06T13:21:36.044Z,27.82
2018-08-06T13:24:04.698Z,28.36
2018-08-06T13:26:33.167Z,26.80
2018-08-06T13:29:01.942Z,28.39
2018-08-06T13:31:30.287Z,26.51
2018-08-06T13:33:58.642Z,26.82
2018-08-06T13:36:26.959Z,27.28
2018-08-06T13:38:55.335Z,26.53
2018-08-06T13:41:23.742Z,26.92
2018-08-06T13:43:52.042Z,27.53
2018-08-06T13:46:20.341Z,27.11
2018-08-06T13:48:48.662Z,26.95
2018-08-06T13:51:16.940Z,26.86
2018-08-06T13:53:45.400Z,26.38
2018-08-06T13:56:13.756Z,25.21
2018-08-06T13:58:42.085Z,26.22
2018-08-06T14:01:10.502Z,25.63
2018-08-06T14:03:38.831Z,26.46
2018-08-06T14:06:07.174Z,26.03
2018-08-06T14:08:35.450Z,26.70
2018-08-06T14:11:03.848Z,26.60
2018-08-06T14:13:32.188Z,27.03
2018-08-06T14:16:00.685Z,25.92
2018-08-06T14:18:29.112Z,24.54
2018-08-06T14:20:57.472Z,25.82
2018-08-06T14:23:26.444Z,25.77
2018-08-06T14:25:54.796Z,25.44
2018-08-06T14:28:23.126Z,26.17
2018-08-06T14:30:51.483Z,24.65
2018-08-06T14:33:19.846Z,24.83
2018-08-06T14:35:48.146Z,25.60
2018-08-06T14:38:16.483Z,23.42
2018-08-06T14:40:44.954Z,24.40
2018-08-06T14:43:13.289Z,24.17
2018-08-06T14:45:41.619Z,24.01
2018-08-06T14:48:09.969Z,24.47
2018-08-06T14:50:38.315Z,24.17
2018-08-06T14:53:06.682Z,24.74
2018-08-06T14:55:35.048Z,24.31
2018-08-06T14:58:03.421Z,24.86
2018-08-06T15:00:31.690Z,23.68
2018-08-06T15:02:59.973Z,24.17
2018-08-06T15:05:28.324Z,24.37
2018-08-06T15:07:56.674Z,24.54
2018-08-06T15:10:24.998Z,23.85
2018-08-06T15:12:53.306Z,24.30
2018-08-06T15:15:21.723Z,23.36
2018-08-06T15:17:50.048Z,22.80
2018-08-06T15:20:19.332Z,23.69
2018-08-06T15:22:47.898Z,22.91
2018-08-06T15:25:17.827Z,23.99
2018-08-06T15:27:52.618Z,25.07
2018-08-06T15:30:21.013Z,24.63
2018-08-06T15:32:49.354Z,24.52
2018-08-06T15:35:17.688Z,24.27
2018-08-06T15:37:46.057Z,23.91
2018-08-06T15:40:17.408Z,23.94
2018-08-06T15:42:45.777Z,25.69
2018-08-06T15:45:14.631Z,23.70
2018-08-06T15:47:44.001Z,24.21
2018-08-06T15:50:15.613Z,24.57
2018-08-06T15:52:44.016Z,25.00
2018-08-06T15:55:12.643Z,23.54
2018-08-06T15:57:41.258Z,24.18
2018-08-06T16:00:11.980Z,25.23
2018-08-06T16:02:40.363Z,24.36
2018-08-06T16:05:09.584Z,23.94
2018-08-06T16:07:38.105Z,24.02
2018-08-06T16:10:07.767Z,26.43
2018-08-06T16:12:36.077Z,25.77
2018-08-06T16:15:05.112Z,25.83
2018-08-06T16:17:33.410Z,25.79
2018-08-06T16:20:01.756Z,25.67
2018-08-06T16:22:30.285Z,25.66
2018-08-06T16:24:58.613Z,25.73
2018-08-06T16:27:26.978Z,26.10
2018-08-06T16:29:55.499Z,26.42
2018-08-06T16:32:23.860Z,25.32
2018-08-06T16:34:52.223Z,25.45
2018-08-06T16:37:20.557Z,26.62
2018-08-06T16:39:48.961Z,24.93
2018-08-06T16:42:17.359Z,25.78
2018-08-06T16:44:45.682Z,25.45
2018-08-06T16:47:14.167Z,25.11
2018-08-06T16:49:42.539Z,25.31
2018-08-06T16:52:11.001Z,25.42
2018-08-06T16:54:39.314Z,25.78
2018-08-06T16:57:07.681Z,25.58
2018-08-06T16:59:36.031Z,25.57
2018-08-06T17:02:04.379Z,26.48
2018-08-06T17:04:32.773Z,25.89
2018-08-06T17:07:01.163Z,26.02
2018-08-06T17:09:29.481Z,25.28
2018-08-06T17:11:57.790Z,25.81
2018-08-06T17:14:26.842Z,26.64
2018-08-06T17:16:55.194Z,25.71
2018-08-06T17:19:23.725Z,26.50
2018-08-06T17:21:52.275Z,26.64
2018-08-06T17:24:20.683Z,26.00
2018-08-06T17:26:49.194Z,27.32
2018-08-06T17:29:17.591Z,27.52
2018-08-06T17:31:45.902Z,26.74
2018-08-06T17:34:14.245Z,27.77
2018-08-06T17:36:42.678Z,27.13
2018-08-06T17:39:11.624Z,27.12
2018-08-06T17:41:40.583Z,27.05
2018-08-06T17:44:08.980Z,27.85
2018-08-06T17:46:37.317Z,27.48
2018-08-06T17:49:06.192Z,28.44
2018-08-06T17:51:34.580Z,28.02
2018-08-06T17:54:03.150Z,28.14
2018-08-06T17:56:31.526Z,28.46
2018-08-06T17:58:59.855Z,27.73
2018-08-06T18:01:28.198Z,27.86
2018-08-06T18:03:56.779Z,29.08
2018-08-06T18:06:25.267Z,31.05
2018-08-06T18:08:53.670Z,31.14
2018-08-06T18:11:22.298Z,31.96
2018-08-06T18:13:51.006Z,31.71
2018-08-06T18:16:19.359Z,32.58
2018-08-06T18:18:47.738Z,34.63
2018-08-06T18:21:16.092Z,35.79
2018-08-06T18:23:44.410Z,36.96
2018-08-06T18:26:13.000Z,37.60
2018-08-06T18:28:41.380Z,37.08
2018-08-06T18:31:09.757Z,37.64
2018-08-06T18:33:38.139Z,38.94
2018-08-06T18:36:06.553Z,39.35
2018-08-06T18:38:35.136Z,39.74
2018-08-06T18:41:04.765Z,39.78
2018-08-06T18:43:33.186Z,39.79
2018-08-06T18:46:01.554Z,39.75
2018-08-06T18:48:29.831Z,39.71
2018-08-06T18:50:58.375Z,40.28
2018-08-06T18:53:26.987Z,40.54
2018-08-06T18:55:55.503Z,41.85
2018-08-06T18:58:24.286Z,41.29
2018-08-06T19:01:19.651Z,42.10
2018-08-06T19:03:49.504Z,41.71
2018-08-06T19:06:17.907Z,42.44
2018-08-06T19:08:46.427Z,42.36
2018-08-06T19:11:14.974Z,42.70
2018-08-06T19:13:48.706Z,43.27
2018-08-06T19:16:17.055Z,42.83
2018-08-06T19:18:50.775Z,43.67
2018-08-06T19:21:19.492Z,43.69
2018-08-06T19:23:47.868Z,44.06
2018-08-06T19:26:16.236Z,43.87
2018-08-06T19:28:44.578Z,45.38
2018-08-06T19:31:18.178Z,45.16
2018-08-06T19:33:46.617Z,45.47
2018-08-06T19:36:14.927Z,45.61
2018-08-06T19:38:43.302Z,45.45
2018-08-06T19:41:11.627Z,45.85
2018-08-06T19:43:40.200Z,45.28
2018-08-06T19:46:09.518Z,45.45
2018-08-06T19:48:37.913Z,45.52
2018-08-06T19:51:08.852Z,46.80
2018-08-06T19:53:48.402Z,47.37
2018-08-06T19:56:18.054Z,46.31
2018-08-06T19:58:47.722Z,47.68
2018-08-06T20:01:16.333Z,47.70
2018-08-06T20:03:45.972Z,48.85
2018-08-06T20:06:17.689Z,50.35
2018-08-06T20:08:50.258Z,49.06
2018-08-06T20:11:22.795Z,48.63
2018-08-06T20:13:53.035Z,48.08
2018-08-06T20:16:22.101Z,49.06
2018-08-06T20:19:01.970Z,49.25
2018-08-06T20:21:34.446Z,49.21
2018-08-06T20:24:15.845Z,49.92
2018-08-06T20:26:48.118Z,49.76
2018-08-06T20:29:18.489Z,49.37
2018-08-06T20:32:05.251Z,49.83
2018-08-06T20:40:24.802Z,51.00
2018-08-06T20:43:15.983Z,51.33
2018-08-06T20:46:07.987Z,51.88
2018-08-06T20:48:39.113Z,52.80
2018-08-06T20:51:12.707Z,52.00
2018-08-06T20:53:41.029Z,52.19
2018-08-06T20:56:09.486Z,51.88
2018-08-06T20:58:38.793Z,52.75
2018-08-06T21:01:10.532Z,52.98
2018-08-06T21:03:39.973Z,53.13
2018-08-06T21:06:08.409Z,54.50
2018-08-06T21:08:38.677Z,53.98
2018-08-06T21:11:07.679Z,54.35
2018-08-06T21:13:36.229Z,54.97
2018-08-06T21:16:07.067Z,53.81
2018-08-06T21:18:36.944Z,53.36
2018-08-06T21:21:05.390Z,53.78
2018-08-06T21:23:33.806Z,55.00
2018-08-06T21:26:03.225Z,56.10
2018-08-06T21:28:34.082Z,56.03
2018-08-06T21:31:02.405Z,55.12
2018-08-06T21:33:33.339Z,55.72
2018-08-06T21:36:03.973Z,56.13
2018-08-06T21:38:34.005Z,55.19
2018-08-06T21:41:02.340Z,55.27
2018-08-06T21:43:30.762Z,55.88
2018-08-06T21:45:59.147Z,56.19
2018-08-06T21:48:28.097Z,57.07
2018-08-06T21:50:56.741Z,57.11
2018-08-06T21:53:26.528Z,56.35
2018-08-06T21:55:55.761Z,56.84
2018-08-06T21:58:26.078Z,56.13
2018-08-06T22:00:54.913Z,56.13
2018-08-06T22:03:23.892Z,56.55
2018-08-06T22:05:53.327Z,56.83
2018-08-06T22:08:23.626Z,57.49
2018-08-06T22:10:52.010Z,57.49
2018-08-06T22:13:20.341Z,56.70
2018-08-06T22:15:55.449Z,56.74
2018-08-06T22:18:25.150Z,57.76
2018-08-06T22:20:54.253Z,58.16
2018-08-06T22:23:23.675Z,58.60
2018-08-06T22:25:52.643Z,59.20
2018-08-06T22:28:22.948Z,58.13
2018-08-06T22:30:51.360Z,58.59
2018-08-06T22:33:20.338Z,58.71
2018-08-06T22:35:48.703Z,58.90
2018-08-06T22:38:17.712Z,58.96
2018-08-06T22:40:46.909Z,60.00
2018-08-06T22:43:15.962Z,59.02
2018-08-06T22:45:46.706Z,58.30
2018-08-06T22:48:15.177Z,57.96
2018-08-06T22:50:44.889Z,58.83
2018-08-06T22:53:14.805Z,59.42
2018-08-06T22:55:54.379Z,59.53
2018-08-06T22:58:24.521Z,60.03
2018-08-06T23:04:16.281Z,60.63
2018-08-06T23:06:44.658Z,60.19
2018-08-06T23:09:13.388Z,59.61
2018-08-06T23:11:42.218Z,60.42
2018-08-06T23:14:10.537Z,61.02
2018-08-06T23:16:39.400Z,61.25
2018-08-06T23:19:07.733Z,61.13
2018-08-06T23:21:36.217Z,60.40
2018-08-06T23:24:05.127Z,59.80
2018-08-06T23:26:33.995Z,60.02
2018-08-06T23:29:02.982Z,60.15
2018-08-06T23:31:31.384Z,61.43
2018-08-06T23:33:59.844Z,61.37
2018-08-06T23:36:28.266Z,61.47
2018-08-06T23:38:56.781Z,61.27
2018-08-06T23:41:25.269Z,61.11
2018-08-06T23:43:53.657Z,60.41
2018-08-06T23:46:22.073Z,60.88
2018-08-06T23:48:50.357Z,61.07
2018-08-06T23:51:18.814Z,62.15
2018-08-06T23:53:47.270Z,62.17
2018-08-06T23:56:15.733Z,62.31
2018-08-06T23:58:44.121Z,63.12
